sensor_id;sensor_type;location;lat;lon;timestamp;P1;durP1;ratioP1;P2;durP2;ratioP2
21162;SDS011;10739;52.198;20.908;2023-03-01T00:01:35;95.68;;;44.65;;
21162;SDS011;10739;52.198;20.908;2023-03-01T00:04:01;96.03;;;46.95;;
21162;SDS011;10739;52.198;20.908;2023-03-01T00:06:28;97.38;;;45.40;;
21162;SDS011;10739;52.198;20.908;2023-03-01T00:08:54;94.45;;;45.25;;
21162;SDS011;10739;52.198;20.908;2023-03-01T00:11:21;95.07;;;44.33;;
21162;SDS011;10739;52.198;20.908;2023-03-01T00:13:52;97.65;;;45.00;;
21162;SDS011;10739;52.198;20.908;2023-03-01T00:16:23;100.20;;;45.30;;
21162;SDS011;10739;52.198;20.908;2023-03-01T00:19:04;104.50;;;45.63;;
21162;SDS011;10739;52.198;20.908;2023-03-01T00:21:39;93.07;;;44.42;;
21162;SDS011;10739;52.198;20.908;2023-03-01T00:24:06;99.30;;;43.55;;
21162;SDS011;10739;52.198;20.908;2023-03-01T00:26:33;100.35;;;44.53;;
21162;SDS011;10739;52.198;20.908;2023-03-01T00:28:59;90.57;;;43.38;;
21162;SDS011;10739;52.198;20.908;2023-03-01T00:31:27;96.68;;;43.72;;
21162;SDS011;10739;52.198;20.908;2023-03-01T00:33:57;87.32;;;42.70;;
21162;SDS011;10739;52.198;20.908;2023-03-01T00:36:28;87.25;;;41.83;;
21162;SDS011;10739;52.198;20.908;2023-03-01T00:38:58;88.95;;;41.35;;
21162;SDS011;10739;52.198;20.908;2023-03-01T00:41:25;80.72;;;39.40;;
21162;SDS011;10739;52.198;20.908;2023-03-01T00:43:52;79.65;;;38.72;;
21162;SDS011;10739;52.198;20.908;2023-03-01T00:46:21;77.55;;;39.92;;
21162;SDS011;10739;52.198;20.908;2023-03-01T00:48:51;75.25;;;38.75;;
21162;SDS011;10739;52.198;20.908;2023-03-01T00:53:50;81.43;;;39.42;;
21162;SDS011;10739;52.198;20.908;2023-03-01T00:56:22;73.43;;;37.60;;
21162;SDS011;10739;52.198;20.908;2023-03-01T00:58:49;74.43;;;37.03;;
21162;SDS011;10739;52.198;20.908;2023-03-01T01:01:18;80.30;;;37.20;;
21162;SDS011;10739;52.198;20.908;2023-03-01T01:03:52;78.15;;;36.35;;
21162;SDS011;10739;52.198;20.908;2023-03-01T01:06:27;72.70;;;35.85;;
21162;SDS011;10739;52.198;20.908;2023-03-01T01:08:56;72.13;;;35.60;;
21162;SDS011;10739;52.198;20.908;2023-03-01T01:11:24;72.38;;;35.55;;
21162;SDS011;10739;52.198;20.908;2023-03-01T01:13:54;68.53;;;33.92;;
21162;SDS011;10739;52.198;20.908;2023-03-01T01:16:23;70.47;;;34.90;;
21162;SDS011;10739;52.198;20.908;2023-03-01T01:18:52;71.97;;;36.58;;
21162;SDS011;10739;52.198;20.908;2023-03-01T01:21:20;73.63;;;35.63;;
21162;SDS011;10739;52.198;20.908;2023-03-01T01:23:49;71.45;;;35.50;;
21162;SDS011;10739;52.198;20.908;2023-03-01T01:26:21;72.63;;;36.67;;
21162;SDS011;10739;52.198;20.908;2023-03-01T01:28:51;69.97;;;34.30;;
21162;SDS011;10739;52.198;20.908;2023-03-01T01:31:19;70.80;;;35.10;;
21162;SDS011;10739;52.198;20.908;2023-03-01T01:33:49;74.20;;;35.35;;
21162;SDS011;10739;52.198;20.908;2023-03-01T01:36:16;72.13;;;35.33;;
21162;SDS011;10739;52.198;20.908;2023-03-01T01:38:43;71.25;;;35.03;;
21162;SDS011;10739;52.198;20.908;2023-03-01T01:41:10;76.43;;;35.58;;
21162;SDS011;10739;52.198;20.908;2023-03-01T01:43:42;75.25;;;36.40;;
21162;SDS011;10739;52.198;20.908;2023-03-01T01:46:31;75.45;;;34.67;;
21162;SDS011;10739;52.198;20.908;2023-03-01T01:49:02;71.05;;;34.85;;
21162;SDS011;10739;52.198;20.908;2023-03-01T01:51:42;75.38;;;35.78;;
21162;SDS011;10739;52.198;20.908;2023-03-01T01:54:18;76.78;;;35.13;;
21162;SDS011;10739;52.198;20.908;2023-03-01T01:56:56;73.15;;;35.47;;
21162;SDS011;10739;52.198;20.908;2023-03-01T01:59:29;79.18;;;35.25;;
21162;SDS011;10739;52.198;20.908;2023-03-01T02:01:59;76.82;;;35.70;;
21162;SDS011;10739;52.198;20.908;2023-03-01T02:04:29;71.60;;;36.92;;
21162;SDS011;10739;52.198;20.908;2023-03-01T02:07:01;75.65;;;35.83;;
21162;SDS011;10739;52.198;20.908;2023-03-01T02:09:38;75.10;;;36.28;;
21162;SDS011;10739;52.198;20.908;2023-03-01T02:12:06;76.60;;;36.08;;
21162;SDS011;10739;52.198;20.908;2023-03-01T02:14:32;78.05;;;36.53;;
21162;SDS011;10739;52.198;20.908;2023-03-01T02:16:59;73.55;;;35.83;;
21162;SDS011;10739;52.198;20.908;2023-03-01T02:22:57;80.15;;;36.88;;
21162;SDS011;10739;52.198;20.908;2023-03-01T02:28:29;85.03;;;40.05;;
21162;SDS011;10739;52.198;20.908;2023-03-01T02:31:00;85.90;;;39.00;;
21162;SDS011;10739;52.198;20.908;2023-03-01T02:33:49;79.90;;;37.85;;
21162;SDS011;10739;52.198;20.908;2023-03-01T02:36:40;82.07;;;37.22;;
21162;SDS011;10739;52.198;20.908;2023-03-01T02:39:11;75.18;;;37.75;;
21162;SDS011;10739;52.198;20.908;2023-03-01T02:41:46;85.50;;;39.70;;
21162;SDS011;10739;52.198;20.908;2023-03-01T02:44:17;75.38;;;37.97;;
21162;SDS011;10739;52.198;20.908;2023-03-01T02:46:46;76.03;;;38.90;;
21162;SDS011;10739;52.198;20.908;2023-03-01T02:49:25;79.85;;;38.72;;
21162;SDS011;10739;52.198;20.908;2023-03-01T02:55:11;82.97;;;39.78;;
21162;SDS011;10739;52.198;20.908;2023-03-01T02:57:43;78.47;;;38.15;;
21162;SDS011;10739;52.198;20.908;2023-03-01T03:00:20;74.97;;;38.53;;
21162;SDS011;10739;52.198;20.908;2023-03-01T03:02:58;79.13;;;38.25;;
21162;SDS011;10739;52.198;20.908;2023-03-01T03:05:26;83.50;;;39.53;;
21162;SDS011;10739;52.198;20.908;2023-03-01T03:07:56;81.00;;;39.97;;
21162;SDS011;10739;52.198;20.908;2023-03-01T03:10:26;75.90;;;38.42;;
21162;SDS011;10739;52.198;20.908;2023-03-01T03:12:57;88.10;;;40.80;;
21162;SDS011;10739;52.198;20.908;2023-03-01T03:15:27;80.03;;;39.35;;
21162;SDS011;10739;52.198;20.908;2023-03-01T03:17:55;76.90;;;37.88;;
21162;SDS011;10739;52.198;20.908;2023-03-01T03:20:25;76.97;;;37.75;;
21162;SDS011;10739;52.198;20.908;2023-03-01T03:22:54;94.25;;;41.40;;
21162;SDS011;10739;52.198;20.908;2023-03-01T03:25:23;82.10;;;39.97;;
21162;SDS011;10739;52.198;20.908;2023-03-01T03:27:52;87.50;;;38.90;;
21162;SDS011;10739;52.198;20.908;2023-03-01T03:30:23;82.95;;;39.30;;
21162;SDS011;10739;52.198;20.908;2023-03-01T03:32:53;84.65;;;39.60;;
21162;SDS011;10739;52.198;20.908;2023-03-01T03:35:21;86.30;;;38.22;;
21162;SDS011;10739;52.198;20.908;2023-03-01T03:37:51;78.45;;;38.20;;
21162;SDS011;10739;52.198;20.908;2023-03-01T03:40:32;87.10;;;38.90;;
21162;SDS011;10739;52.198;20.908;2023-03-01T03:43:02;77.10;;;38.08;;
21162;SDS011;10739;52.198;20.908;2023-03-01T03:45:30;80.53;;;39.03;;
21162;SDS011;10739;52.198;20.908;2023-03-01T03:48:01;81.28;;;38.42;;
21162;SDS011;10739;52.198;20.908;2023-03-01T03:50:31;77.68;;;38.28;;
21162;SDS011;10739;52.198;20.908;2023-03-01T03:53:03;82.40;;;37.78;;
21162;SDS011;10739;52.198;20.908;2023-03-01T03:55:38;75.60;;;38.40;;
21162;SDS011;10739;52.198;20.908;2023-03-01T03:58:08;87.80;;;38.58;;
21162;SDS011;10739;52.198;20.908;2023-03-01T04:00:43;71.78;;;35.08;;
21162;SDS011;10739;52.198;20.908;2023-03-01T04:03:11;75.07;;;35.60;;
21162;SDS011;10739;52.198;20.908;2023-03-01T04:05:40;75.65;;;36.40;;
21162;SDS011;10739;52.198;20.908;2023-03-01T04:08:08;76.07;;;36.40;;
21162;SDS011;10739;52.198;20.908;2023-03-01T04:10:36;70.75;;;33.42;;
21162;SDS011;10739;52.198;20.908;2023-03-01T04:13:11;86.72;;;37.47;;
21162;SDS011;10739;52.198;20.908;2023-03-01T04:15:40;82.28;;;37.10;;
21162;SDS011;10739;52.198;20.908;2023-03-01T04:18:11;84.47;;;36.80;;
21162;SDS011;10739;52.198;20.908;2023-03-01T04:20:40;77.80;;;38.38;;
21162;SDS011;10739;52.198;20.908;2023-03-01T04:23:09;85.07;;;37.67;;
21162;SDS011;10739;52.198;20.908;2023-03-01T04:28:25;84.47;;;41.20;;
21162;SDS011;10739;52.198;20.908;2023-03-01T04:31:03;83.05;;;38.97;;
21162;SDS011;10739;52.198;20.908;2023-03-01T04:33:41;81.20;;;39.08;;
21162;SDS011;10739;52.198;20.908;2023-03-01T04:36:10;81.80;;;39.53;;
21162;SDS011;10739;52.198;20.908;2023-03-01T04:38:39;81.65;;;39.22;;
21162;SDS011;10739;52.198;20.908;2023-03-01T04:41:07;80.53;;;39.38;;
21162;SDS011;10739;52.198;20.908;2023-03-01T04:43:36;83.10;;;39.38;;
21162;SDS011;10739;52.198;20.908;2023-03-01T04:46:04;78.25;;;39.38;;
21162;SDS011;10739;52.198;20.908;2023-03-01T04:48:37;85.43;;;39.00;;
21162;SDS011;10739;52.198;20.908;2023-03-01T04:51:05;90.60;;;41.28;;
21162;SDS011;10739;52.198;20.908;2023-03-01T04:53:34;89.82;;;39.88;;
21162;SDS011;10739;52.198;20.908;2023-03-01T04:56:02;85.82;;;38.78;;
21162;SDS011;10739;52.198;20.908;2023-03-01T04:58:29;80.05;;;39.67;;
21162;SDS011;10739;52.198;20.908;2023-03-01T05:00:56;88.90;;;39.58;;
21162;SDS011;10739;52.198;20.908;2023-03-01T05:03:23;80.70;;;39.00;;
21162;SDS011;10739;52.198;20.908;2023-03-01T05:05:50;81.10;;;39.22;;
21162;SDS011;10739;52.198;20.908;2023-03-01T05:08:18;79.75;;;37.35;;
21162;SDS011;10739;52.198;20.908;2023-03-01T05:10:48;76.90;;;36.78;;
21162;SDS011;10739;52.198;20.908;2023-03-01T05:13:18;84.60;;;39.45;;
21162;SDS011;10739;52.198;20.908;2023-03-01T05:15:48;80.90;;;37.13;;
21162;SDS011;10739;52.198;20.908;2023-03-01T05:18:21;76.80;;;36.63;;
21162;SDS011;10739;52.198;20.908;2023-03-01T05:20:54;86.25;;;38.10;;
21162;SDS011;10739;52.198;20.908;2023-03-01T05:23:29;72.25;;;36.17;;
21162;SDS011;10739;52.198;20.908;2023-03-01T05:25:58;75.82;;;36.13;;
21162;SDS011;10739;52.198;20.908;2023-03-01T05:28:27;74.32;;;35.03;;
21162;SDS011;10739;52.198;20.908;2023-03-01T05:30:54;73.97;;;37.38;;
21162;SDS011;10739;52.198;20.908;2023-03-01T05:33:22;77.95;;;36.80;;
21162;SDS011;10739;52.198;20.908;2023-03-01T05:35:50;85.60;;;38.53;;
21162;SDS011;10739;52.198;20.908;2023-03-01T05:38:19;83.85;;;36.80;;
21162;SDS011;10739;52.198;20.908;2023-03-01T05:40:47;76.10;;;35.03;;
21162;SDS011;10739;52.198;20.908;2023-03-01T05:43:15;74.38;;;35.35;;
21162;SDS011;10739;52.198;20.908;2023-03-01T05:45:43;76.72;;;36.60;;
21162;SDS011;10739;52.198;20.908;2023-03-01T05:48:10;82.45;;;36.30;;
21162;SDS011;10739;52.198;20.908;2023-03-01T05:50:42;72.55;;;35.55;;
21162;SDS011;10739;52.198;20.908;2023-03-01T05:53:11;73.53;;;34.10;;
21162;SDS011;10739;52.198;20.908;2023-03-01T05:55:44;78.18;;;36.15;;
21162;SDS011;10739;52.198;20.908;2023-03-01T05:58:14;71.47;;;34.72;;
21162;SDS011;10739;52.198;20.908;2023-03-01T06:00:43;76.18;;;34.97;;
21162;SDS011;10739;52.198;20.908;2023-03-01T06:03:12;70.75;;;34.60;;
21162;SDS011;10739;52.198;20.908;2023-03-01T06:05:41;70.93;;;34.70;;
21162;SDS011;10739;52.198;20.908;2023-03-01T06:08:09;73.15;;;35.92;;
21162;SDS011;10739;52.198;20.908;2023-03-01T06:10:36;71.25;;;36.92;;
21162;SDS011;10739;52.198;20.908;2023-03-01T06:13:03;74.22;;;35.15;;
21162;SDS011;10739;52.198;20.908;2023-03-01T06:15:30;73.95;;;34.83;;
21162;SDS011;10739;52.198;20.908;2023-03-01T06:17:56;75.28;;;36.65;;
21162;SDS011;10739;52.198;20.908;2023-03-01T06:20:23;75.90;;;34.45;;
21162;SDS011;10739;52.198;20.908;2023-03-01T06:22:52;73.32;;;35.92;;
21162;SDS011;10739;52.198;20.908;2023-03-01T06:25:24;86.47;;;37.63;;
21162;SDS011;10739;52.198;20.908;2023-03-01T06:27:52;74.97;;;36.33;;
21162;SDS011;10739;52.198;20.908;2023-03-01T06:30:20;71.50;;;36.05;;
21162;SDS011;10739;52.198;20.908;2023-03-01T06:32:49;74.72;;;35.25;;
21162;SDS011;10739;52.198;20.908;2023-03-01T06:35:16;74.50;;;36.00;;
21162;SDS011;10739;52.198;20.908;2023-03-01T06:37:45;77.25;;;36.75;;
21162;SDS011;10739;52.198;20.908;2023-03-01T06:40:13;74.10;;;34.08;;
21162;SDS011;10739;52.198;20.908;2023-03-01T06:42:41;67.88;;;35.85;;
21162;SDS011;10739;52.198;20.908;2023-03-01T06:45:13;72.43;;;33.17;;
21162;SDS011;10739;52.198;20.908;2023-03-01T06:47:39;68.38;;;35.40;;
21162;SDS011;10739;52.198;20.908;2023-03-01T06:50:06;77.63;;;35.97;;
21162;SDS011;10739;52.198;20.908;2023-03-01T06:52:33;78.80;;;35.70;;
21162;SDS011;10739;52.198;20.908;2023-03-01T06:54:59;68.30;;;34.25;;
21162;SDS011;10739;52.198;20.908;2023-03-01T06:57:26;68.32;;;34.28;;
21162;SDS011;10739;52.198;20.908;2023-03-01T06:59:53;72.03;;;33.50;;
21162;SDS011;10739;52.198;20.908;2023-03-01T07:02:19;70.15;;;33.83;;
21162;SDS011;10739;52.198;20.908;2023-03-01T07:04:47;64.38;;;33.03;;
21162;SDS011;10739;52.198;20.908;2023-03-01T07:07:15;67.55;;;33.47;;
21162;SDS011;10739;52.198;20.908;2023-03-01T07:09:46;76.18;;;32.88;;
21162;SDS011;10739;52.198;20.908;2023-03-01T07:12:14;41.63;;;24.00;;
21162;SDS011;10739;52.198;20.908;2023-03-01T07:14:44;67.28;;;32.00;;
21162;SDS011;10739;52.198;20.908;2023-03-01T07:17:10;64.95;;;32.30;;
21162;SDS011;10739;52.198;20.908;2023-03-01T07:19:37;72.38;;;32.72;;
21162;SDS011;10739;52.198;20.908;2023-03-01T07:22:03;63.70;;;32.45;;
21162;SDS011;10739;52.198;20.908;2023-03-01T07:24:33;61.40;;;32.88;;
21162;SDS011;10739;52.198;20.908;2023-03-01T07:26:59;62.80;;;31.23;;
21162;SDS011;10739;52.198;20.908;2023-03-01T07:29:26;66.15;;;32.58;;
21162;SDS011;10739;52.198;20.908;2023-03-01T07:31:54;64.28;;;30.17;;
21162;SDS011;10739;52.198;20.908;2023-03-01T07:34:20;63.05;;;31.90;;
21162;SDS011;10739;52.198;20.908;2023-03-01T07:36:48;62.75;;;31.10;;
21162;SDS011;10739;52.198;20.908;2023-03-01T07:39:15;65.47;;;33.17;;
21162;SDS011;10739;52.198;20.908;2023-03-01T07:41:41;59.88;;;29.75;;
21162;SDS011;10739;52.198;20.908;2023-03-01T07:44:07;61.97;;;29.55;;
21162;SDS011;10739;52.198;20.908;2023-03-01T07:46:34;69.35;;;32.40;;
21162;SDS011;10739;52.198;20.908;2023-03-01T07:49:00;59.00;;;29.63;;
21162;SDS011;10739;52.198;20.908;2023-03-01T07:51:27;62.40;;;29.65;;
21162;SDS011;10739;52.198;20.908;2023-03-01T07:53:53;54.35;;;28.33;;
21162;SDS011;10739;52.198;20.908;2023-03-01T07:56:20;56.92;;;29.45;;
21162;SDS011;10739;52.198;20.908;2023-03-01T07:58:49;54.80;;;28.60;;
21162;SDS011;10739;52.198;20.908;2023-03-01T08:01:17;59.90;;;28.20;;
21162;SDS011;10739;52.198;20.908;2023-03-01T08:03:46;59.35;;;28.48;;
21162;SDS011;10739;52.198;20.908;2023-03-01T08:06:13;52.22;;;27.95;;
21162;SDS011;10739;52.198;20.908;2023-03-01T08:08:43;51.88;;;27.27;;
21162;SDS011;10739;52.198;20.908;2023-03-01T08:11:11;51.28;;;27.67;;
21162;SDS011;10739;52.198;20.908;2023-03-01T08:13:40;58.63;;;28.90;;
21162;SDS011;10739;52.198;20.908;2023-03-01T08:16:10;54.50;;;27.55;;
21162;SDS011;10739;52.198;20.908;2023-03-01T08:18:38;51.25;;;26.33;;
21162;SDS011;10739;52.198;20.908;2023-03-01T08:21:06;55.40;;;27.88;;
21162;SDS011;10739;52.198;20.908;2023-03-01T08:23:36;61.28;;;28.30;;
21162;SDS011;10739;52.198;20.908;2023-03-01T08:26:10;50.50;;;26.77;;
21162;SDS011;10739;52.198;20.908;2023-03-01T08:28:40;48.33;;;26.05;;
21162;SDS011;10739;52.198;20.908;2023-03-01T08:31:20;51.95;;;26.98;;
21162;SDS011;10739;52.198;20.908;2023-03-01T08:34:03;55.95;;;27.02;;
21162;SDS011;10739;52.198;20.908;2023-03-01T08:36:40;57.53;;;26.45;;
21162;SDS011;10739;52.198;20.908;2023-03-01T08:39:10;46.55;;;25.75;;
21162;SDS011;10739;52.198;20.908;2023-03-01T08:41:42;51.22;;;25.20;;
21162;SDS011;10739;52.198;20.908;2023-03-01T08:44:09;43.63;;;25.98;;
21162;SDS011;10739;52.198;20.908;2023-03-01T08:46:38;47.60;;;25.20;;
21162;SDS011;10739;52.198;20.908;2023-03-01T08:49:07;61.45;;;25.58;;
21162;SDS011;10739;52.198;20.908;2023-03-01T08:51:38;46.72;;;22.65;;
21162;SDS011;10739;52.198;20.908;2023-03-01T08:54:09;38.55;;;22.33;;
21162;SDS011;10739;52.198;20.908;2023-03-01T08:56:41;46.05;;;22.65;;
21162;SDS011;10739;52.198;20.908;2023-03-01T08:59:09;42.72;;;21.73;;
21162;SDS011;10739;52.198;20.908;2023-03-01T09:01:36;37.58;;;21.17;;
21162;SDS011;10739;52.198;20.908;2023-03-01T09:04:03;36.83;;;21.23;;
21162;SDS011;10739;52.198;20.908;2023-03-01T09:06:31;38.60;;;20.42;;
21162;SDS011;10739;52.198;20.908;2023-03-01T09:08:59;41.58;;;20.75;;
21162;SDS011;10739;52.198;20.908;2023-03-01T09:11:26;40.13;;;21.05;;
21162;SDS011;10739;52.198;20.908;2023-03-01T09:13:53;38.85;;;20.67;;
21162;SDS011;10739;52.198;20.908;2023-03-01T09:16:21;32.95;;;20.08;;
21162;SDS011;10739;52.198;20.908;2023-03-01T09:18:48;35.75;;;20.20;;
21162;SDS011;10739;52.198;20.908;2023-03-01T09:21:20;39.67;;;21.20;;
21162;SDS011;10739;52.198;20.908;2023-03-01T09:23:49;36.40;;;19.42;;
21162;SDS011;10739;52.198;20.908;2023-03-01T09:26:18;35.72;;;20.02;;
21162;SDS011;10739;52.198;20.908;2023-03-01T09:28:51;35.43;;;19.67;;
21162;SDS011;10739;52.198;20.908;2023-03-01T09:31:21;33.17;;;19.23;;
21162;SDS011;10739;52.198;20.908;2023-03-01T09:33:50;31.45;;;18.40;;
21162;SDS011;10739;52.198;20.908;2023-03-01T09:36:20;37.90;;;19.05;;
21162;SDS011;10739;52.198;20.908;2023-03-01T09:38:50;33.53;;;20.35;;
21162;SDS011;10739;52.198;20.908;2023-03-01T09:43:59;35.63;;;18.85;;
21162;SDS011;10739;52.198;20.908;2023-03-01T09:46:55;33.20;;;19.35;;
21162;SDS011;10739;52.198;20.908;2023-03-01T09:49:26;33.30;;;19.52;;
21162;SDS011;10739;52.198;20.908;2023-03-01T09:52:02;34.63;;;18.42;;
21162;SDS011;10739;52.198;20.908;2023-03-01T09:54:49;35.05;;;18.05;;
21162;SDS011;10739;52.198;20.908;2023-03-01T10:03:28;30.48;;;16.75;;
21162;SDS011;10739;52.198;20.908;2023-03-01T10:06:19;30.55;;;17.20;;
21162;SDS011;10739;52.198;20.908;2023-03-01T10:11:46;31.77;;;16.58;;
21162;SDS011;10739;52.198;20.908;2023-03-01T10:17:12;27.92;;;15.65;;
21162;SDS011;10739;52.198;20.908;2023-03-01T10:19:49;29.25;;;16.42;;
21162;SDS011;10739;52.198;20.908;2023-03-01T10:22:17;31.55;;;16.55;;
21162;SDS011;10739;52.198;20.908;2023-03-01T10:24:54;27.45;;;15.07;;
21162;SDS011;10739;52.198;20.908;2023-03-01T10:27:26;30.65;;;15.02;;
21162;SDS011;10739;52.198;20.908;2023-03-01T10:32:53;25.15;;;13.68;;
21162;SDS011;10739;52.198;20.908;2023-03-01T10:35:24;24.02;;;13.80;;
21162;SDS011;10739;52.198;20.908;2023-03-01T10:37:59;26.35;;;14.60;;
21162;SDS011;10739;52.198;20.908;2023-03-01T10:40:49;24.77;;;13.98;;
21162;SDS011;10739;52.198;20.908;2023-03-01T10:43:40;22.58;;;12.15;;
21162;SDS011;10739;52.198;20.908;2023-03-01T10:51:48;24.98;;;13.13;;
21162;SDS011;10739;52.198;20.908;2023-03-01T10:56:55;28.80;;;13.32;;
21162;SDS011;10739;52.198;20.908;2023-03-01T10:59:32;24.75;;;13.77;;
21162;SDS011;10739;52.198;20.908;2023-03-01T11:02:23;25.85;;;13.90;;
21162;SDS011;10739;52.198;20.908;2023-03-01T11:07:52;27.40;;;14.15;;
21162;SDS011;10739;52.198;20.908;2023-03-01T11:12:53;22.67;;;13.38;;
21162;SDS011;10739;52.198;20.908;2023-03-01T11:15:40;24.77;;;12.73;;
21162;SDS011;10739;52.198;20.908;2023-03-01T11:18:21;23.98;;;13.25;;
21162;SDS011;10739;52.198;20.908;2023-03-01T11:20:49;21.73;;;12.65;;
21162;SDS011;10739;52.198;20.908;2023-03-01T11:23:21;23.30;;;12.02;;
21162;SDS011;10739;52.198;20.908;2023-03-01T11:25:51;25.33;;;12.55;;
21162;SDS011;10739;52.198;20.908;2023-03-01T11:28:33;28.75;;;12.15;;
21162;SDS011;10739;52.198;20.908;2023-03-01T11:31:07;21.27;;;12.50;;
21162;SDS011;10739;52.198;20.908;2023-03-01T11:36:51;22.17;;;12.48;;
21162;SDS011;10739;52.198;20.908;2023-03-01T11:42:13;23.38;;;12.73;;
21162;SDS011;10739;52.198;20.908;2023-03-01T11:45:10;18.95;;;11.27;;
21162;SDS011;10739;52.198;20.908;2023-03-01T11:53:33;17.73;;;10.25;;
21162;SDS011;10739;52.198;20.908;2023-03-01T12:02:13;23.67;;;10.13;;
21162;SDS011;10739;52.198;20.908;2023-03-01T12:05:18;22.73;;;11.82;;
21162;SDS011;10739;52.198;20.908;2023-03-01T12:08:23;19.23;;;10.73;;
21162;SDS011;10739;52.198;20.908;2023-03-01T12:14:59;21.50;;;10.73;;
21162;SDS011;10739;52.198;20.908;2023-03-01T12:20:58;17.30;;;10.07;;
21162;SDS011;10739;52.198;20.908;2023-03-01T12:26:32;26.02;;;10.48;;
21162;SDS011;10739;52.198;20.908;2023-03-01T12:32:12;20.42;;;11.50;;
21162;SDS011;10739;52.198;20.908;2023-03-01T12:35:10;21.88;;;12.07;;
21162;SDS011;10739;52.198;20.908;2023-03-01T12:37:47;19.20;;;11.18;;
21162;SDS011;10739;52.198;20.908;2023-03-01T12:40:46;22.67;;;10.70;;
21162;SDS011;10739;52.198;20.908;2023-03-01T12:49:14;22.02;;;11.93;;
21162;SDS011;10739;52.198;20.908;2023-03-01T12:52:10;22.73;;;12.77;;
21162;SDS011;10739;52.198;20.908;2023-03-01T12:54:47;19.02;;;12.32;;
21162;SDS011;10739;52.198;20.908;2023-03-01T13:02:49;23.55;;;12.48;;
21162;SDS011;10739;52.198;20.908;2023-03-01T13:09:03;19.17;;;11.35;;
21162;SDS011;10739;52.198;20.908;2023-03-01T13:11:52;22.08;;;12.38;;
21162;SDS011;10739;52.198;20.908;2023-03-01T13:16:48;23.63;;;12.45;;
21162;SDS011;10739;52.198;20.908;2023-03-01T13:19:20;27.30;;;12.98;;
21162;SDS011;10739;52.198;20.908;2023-03-01T13:21:50;25.42;;;14.15;;
21162;SDS011;10739;52.198;20.908;2023-03-01T13:24:23;24.20;;;13.40;;
21162;SDS011;10739;52.198;20.908;2023-03-01T13:29:47;26.40;;;13.85;;
21162;SDS011;10739;52.198;20.908;2023-03-01T13:34:55;25.77;;;13.27;;
21162;SDS011;10739;52.198;20.908;2023-03-01T13:37:40;23.52;;;13.43;;
21162;SDS011;10739;52.198;20.908;2023-03-01T13:42:46;19.88;;;12.38;;
21162;SDS011;10739;52.198;20.908;2023-03-01T13:45:22;23.80;;;13.68;;
21162;SDS011;10739;52.198;20.908;2023-03-01T13:48:09;29.23;;;13.90;;
21162;SDS011;10739;52.198;20.908;2023-03-01T13:51:04;21.08;;;13.45;;
21162;SDS011;10739;52.198;20.908;2023-03-01T13:53:37;21.50;;;12.52;;
21162;SDS011;10739;52.198;20.908;2023-03-01T13:56:20;30.13;;;14.05;;
21162;SDS011;10739;52.198;20.908;2023-03-01T13:59:13;28.85;;;14.43;;
21162;SDS011;10739;52.198;20.908;2023-03-01T14:01:51;22.17;;;13.02;;
21162;SDS011;10739;52.198;20.908;2023-03-01T14:04:23;22.02;;;13.32;;
21162;SDS011;10739;52.198;20.908;2023-03-01T14:06:52;25.30;;;13.48;;
21162;SDS011;10739;52.198;20.908;2023-03-01T14:09:49;28.08;;;14.48;;
21162;SDS011;10739;52.198;20.908;2023-03-01T14:18:12;31.10;;;14.32;;
21162;SDS011;10739;52.198;20.908;2023-03-01T14:20:50;22.65;;;14.13;;
21162;SDS011;10739;52.198;20.908;2023-03-01T14:23:18;30.60;;;13.73;;
21162;SDS011;10739;52.198;20.908;2023-03-01T14:25:52;26.95;;;14.85;;
21162;SDS011;10739;52.198;20.908;2023-03-01T14:30:57;23.00;;;13.50;;
21162;SDS011;10739;52.198;20.908;2023-03-01T14:36:05;23.38;;;12.68;;
21162;SDS011;10739;52.198;20.908;2023-03-01T14:38:38;21.23;;;12.93;;
21162;SDS011;10739;52.198;20.908;2023-03-01T14:41:14;22.77;;;11.82;;
21162;SDS011;10739;52.198;20.908;2023-03-01T14:43:51;19.60;;;11.85;;
21162;SDS011;10739;52.198;20.908;2023-03-01T14:46:34;21.55;;;12.40;;
21162;SDS011;10739;52.198;20.908;2023-03-01T14:54:28;24.30;;;13.85;;
21162;SDS011;10739;52.198;20.908;2023-03-01T14:57:02;27.35;;;14.15;;
21162;SDS011;10739;52.198;20.908;2023-03-01T14:59:28;27.48;;;13.45;;
21162;SDS011;10739;52.198;20.908;2023-03-01T15:01:56;27.73;;;14.18;;
21162;SDS011;10739;52.198;20.908;2023-03-01T15:04:24;24.65;;;14.23;;
21162;SDS011;10739;52.198;20.908;2023-03-01T15:06:54;24.25;;;13.05;;
21162;SDS011;10739;52.198;20.908;2023-03-01T15:09:30;22.92;;;13.90;;
21162;SDS011;10739;52.198;20.908;2023-03-01T15:12:23;27.05;;;14.23;;
21162;SDS011;10739;52.198;20.908;2023-03-01T15:18:14;29.15;;;13.82;;
21162;SDS011;10739;52.198;20.908;2023-03-01T15:20:53;25.45;;;14.52;;
21162;SDS011;10739;52.198;20.908;2023-03-01T15:23:25;27.92;;;15.27;;
21162;SDS011;10739;52.198;20.908;2023-03-01T15:25:55;28.45;;;15.63;;
21162;SDS011;10739;52.198;20.908;2023-03-01T15:28:27;29.40;;;15.90;;
21162;SDS011;10739;52.198;20.908;2023-03-01T15:31:12;28.60;;;14.90;;
21162;SDS011;10739;52.198;20.908;2023-03-01T15:36:42;31.80;;;14.68;;
21162;SDS011;10739;52.198;20.908;2023-03-01T15:39:32;26.58;;;15.50;;
21162;SDS011;10739;52.198;20.908;2023-03-01T15:42:13;29.30;;;15.02;;
21162;SDS011;10739;52.198;20.908;2023-03-01T15:45:09;28.65;;;15.25;;
21162;SDS011;10739;52.198;20.908;2023-03-01T15:47:39;27.48;;;14.70;;
21162;SDS011;10739;52.198;20.908;2023-03-01T15:50:16;22.25;;;13.70;;
21162;SDS011;10739;52.198;20.908;2023-03-01T15:52:49;26.80;;;14.43;;
21162;SDS011;10739;52.198;20.908;2023-03-01T15:55:18;24.48;;;14.15;;
21162;SDS011;10739;52.198;20.908;2023-03-01T15:57:48;31.02;;;14.95;;
21162;SDS011;10739;52.198;20.908;2023-03-01T16:00:23;28.55;;;13.93;;
21162;SDS011;10739;52.198;20.908;2023-03-01T16:02:49;29.38;;;14.70;;
21162;SDS011;10739;52.198;20.908;2023-03-01T16:05:18;28.83;;;15.63;;
21162;SDS011;10739;52.198;20.908;2023-03-01T16:07:51;26.90;;;13.77;;
21162;SDS011;10739;52.198;20.908;2023-03-01T16:10:19;26.05;;;15.13;;
21162;SDS011;10739;52.198;20.908;2023-03-01T16:12:46;29.60;;;15.10;;
21162;SDS011;10739;52.198;20.908;2023-03-01T16:15:18;27.38;;;14.75;;
21162;SDS011;10739;52.198;20.908;2023-03-01T16:17:55;23.60;;;13.43;;
21162;SDS011;10739;52.198;20.908;2023-03-01T16:20:23;27.45;;;14.98;;
21162;SDS011;10739;52.198;20.908;2023-03-01T16:22:51;26.27;;;13.00;;
21162;SDS011;10739;52.198;20.908;2023-03-01T16:25:18;26.45;;;14.95;;
21162;SDS011;10739;52.198;20.908;2023-03-01T16:27:47;26.13;;;13.65;;
21162;SDS011;10739;52.198;20.908;2023-03-01T16:30:17;36.80;;;15.77;;
21162;SDS011;10739;52.198;20.908;2023-03-01T16:32:47;25.38;;;13.85;;
21162;SDS011;10739;52.198;20.908;2023-03-01T16:35:15;28.58;;;14.55;;
21162;SDS011;10739;52.198;20.908;2023-03-01T16:37:46;32.40;;;15.45;;
21162;SDS011;10739;52.198;20.908;2023-03-01T16:40:17;29.85;;;14.63;;
21162;SDS011;10739;52.198;20.908;2023-03-01T16:42:53;32.05;;;15.68;;